Terminal Aerodrome Forecast
Issued by NWS North Platte, NE

Home | Current Version | Previous Version | Graphics & Text | Print | Product List | Glossary On
Versions: 1 2 3 4 5 6 7 8 9 10 11 12 13 14 15 16 17 18 19
000
FTUS43 KLBF 261000 AAB
TAFVTN
TAF AMD
KVTN 261050Z 2611/2706 33022G31KT P6SM OVC016
     FM261700 33014G22KT P6SM SCT025 OVC050
     FM261900 34011KT P6SM BKN050
     FM262300 VRB05KT P6SM BKN070=

USA.gov is the U.S. government's official web portal to all federal, state and local government web resources and services.